Time;durP1;ratioP1;P1;durP2;ratioP2;P2;SDS_P1;SDS_P2;PMS_P1;PMS_P2;Temp;Humidity;BMP_temperature;BMP_pressure;BME280_temperature;BME280_humidity;BME280_pressure;Samples;Min_cycle;Max_cycle;Signal;HPM_P1;HPM_P2
2023/01/30 00:00:08;;;;;;;;;;;;;;;6.38;36.96;99636.31;4486955;31;34087;-81
2023/01/30 00:02:36;;;;;;;;;;;;;;;6.68;36.35;99633.97;4483546;31;33836;-83
2023/01/30 00:05:03;;;;;;;;;;;;;;;6.58;36.60;99633.63;4483746;31;33561;-81
2023/01/30 00:07:30;;;;;;;;;;;;;;;6.52;36.59;99636.00;4483052;31;34181;-81
2023/01/30 00:09:58;;;;;;;;;;;;;;;6.39;36.70;99635.47;4487542;31;35234;-81
2023/01/30 00:12:25;;;;;;;;;;;;;;;6.37;36.80;99632.84;4485956;31;34186;-82
2023/01/30 00:14:52;;;;;;;;;;;;;;;6.33;36.78;99637.03;4496292;31;33460;-80
2023/01/30 00:17:20;;;;;;;;;;;;;;;6.22;36.91;99627.13;4483357;31;33839;-81
2023/01/30 00:19:47;;;;;;;;;;;;;;;6.67;36.21;99621.91;4489803;31;33860;-81
2023/01/30 00:22:14;;;;;;;;;;;;;;;6.49;36.57;99616.97;4483323;31;33845;-81
2023/01/30 00:24:41;;;;;;;;;;;;;;;6.37;36.65;99626.84;4489209;31;33121;-81
2023/01/30 00:27:09;;;;;;;;;;;;;;;6.13;37.05;99629.34;4492521;31;34936;-82
2023/01/30 00:29:36;;;;;;;;;;;;;;;6.04;37.04;99627.31;4490095;31;34250;-82
2023/01/30 00:32:03;;;;;;;;;;;;;;;6.13;37.09;99624.19;4484072;31;34957;-82
2023/01/30 00:34:31;;;;;;;;;;;;;;;5.74;37.48;99630.41;4483914;31;33041;-81
2023/01/30 00:36:58;;;;;;;;;;;;;;;5.02;38.41;99624.91;4489037;31;33935;-82
2023/01/30 00:39:34;;;;;;;;;;;;;;;5.67;37.71;99619.84;4481149;31;34832;-82
2023/01/30 00:47:34;;;;;;;;;;;;;;;5.90;37.65;99613.00;4483046;31;33261;-82
2023/01/30 00:50:02;;;;;;;;;;;;;;;6.12;36.97;99614.72;4489223;31;34090;-83
2023/01/30 00:52:29;;;;;;;;;;;;;;;5.08;38.46;99614.91;4486242;31;32326;-82
2023/01/30 00:54:56;;;;;;;;;;;;;;;5.45;38.17;99612.94;4474939;31;33609;-81
2023/01/30 00:57:24;;;;;;;;;;;;;;;5.61;37.94;99612.75;4486663;31;33803;-81
2023/01/30 00:59:51;;;;;;;;;;;;;;;5.34;38.38;99602.22;4487409;31;34218;-83
2023/01/30 01:02:18;;;;;;;;;;;;;;;5.15;38.90;99600.59;4494896;31;34400;-82
2023/01/30 01:04:45;;;;;;;;;;;;;;;5.58;38.26;99600.66;4492154;31;33128;-82
2023/01/30 01:07:13;;;;;;;;;;;;;;;5.37;38.42;99600.66;4470386;31;33831;-81
2023/01/30 01:09:40;;;;;;;;;;;;;;;5.71;38.15;99596.84;4476839;32;33863;-82
2023/01/30 01:12:08;;;;;;;;;;;;;;;5.91;37.77;99589.00;4478429;31;33695;-81
2023/01/30 01:14:35;;;;;;;;;;;;;;;6.17;37.25;99582.31;4484362;31;33368;-81
2023/01/30 01:17:04;;;;;;;;;;;;;;;5.61;38.06;99587.03;4484619;31;33860;-82
2023/01/30 01:19:31;;;;;;;;;;;;;;;5.78;37.89;99587.69;4483409;31;35138;-81
2023/01/30 01:21:58;;;;;;;;;;;;;;;6.01;37.33;99580.88;4483755;31;34142;-83
2023/01/30 01:24:26;;;;;;;;;;;;;;;5.83;37.69;99581.00;4484441;31;33196;-83
2023/01/30 01:26:54;;;;;;;;;;;;;;;5.55;38.00;99573.94;4497827;31;35103;-82
2023/01/30 01:29:21;;;;;;;;;;;;;;;5.77;37.80;99571.38;4493385;31;34164;-82
2023/01/30 01:31:49;;;;;;;;;;;;;;;5.80;37.56;99574.06;4483842;31;34339;-80
2023/01/30 01:34:16;;;;;;;;;;;;;;;5.65;37.83;99570.91;4492529;31;33529;-81
2023/01/30 01:36:47;;;;;;;;;;;;;;;5.75;37.62;99566.97;4489529;31;34209;-81
2023/01/30 01:39:21;;;;;;;;;;;;;;;5.64;37.77;99568.25;4483763;31;35177;-82
2023/01/30 01:41:49;;;;;;;;;;;;;;;5.43;38.09;99564.03;4487236;31;34358;-82
2023/01/30 01:44:16;;;;;;;;;;;;;;;5.56;37.94;99557.69;4470428;31;32541;-81
2023/01/30 01:46:46;;;;;;;;;;;;;;;5.90;37.39;99557.25;4485653;31;34114;-81
2023/01/30 01:49:13;;;;;;;;;;;;;;;5.63;37.88;99557.09;4492833;31;33662;-81
2023/01/30 01:51:41;;;;;;;;;;;;;;;5.58;37.75;99540.62;4487584;31;34752;-82
2023/01/30 01:54:10;;;;;;;;;;;;;;;5.80;37.49;99543.19;4486680;31;33425;-81
2023/01/30 01:56:41;;;;;;;;;;;;;;;5.79;37.45;99544.00;4483458;31;34104;-82
2023/01/30 01:59:20;;;;;;;;;;;;;;;5.72;37.67;99531.75;4471906;32;34423;-81
2023/01/30 02:01:47;;;;;;;;;;;;;;;5.66;37.66;99535.78;4491004;31;33866;-81
2023/01/30 02:05:00;;;;;;;;;;;;;;;5.62;37.86;99529.63;4476157;31;33522;-81
2023/01/30 02:07:02;;;;;;;;;;;;;;;5.62;38.08;99534.78;4493884;31;34293;-81
2023/01/30 02:09:29;;;;;;;;;;;;;;;5.88;37.31;99516.88;4471049;32;35249;-81
2023/01/30 02:11:57;;;;;;;;;;;;;;;5.57;37.78;99518.31;4484490;31;34766;-81
2023/01/30 02:14:27;;;;;;;;;;;;;;;5.71;37.64;99508.50;4473300;31;33292;-82
2023/01/30 02:16:54;;;;;;;;;;;;;;;5.78;37.44;99500.22;4480096;31;34532;-82
2023/01/30 02:19:23;;;;;;;;;;;;;;;5.72;37.62;99508.59;4484927;31;34292;-81
2023/01/30 02:22:09;;;;;;;;;;;;;;;5.62;37.74;99504.78;4473976;32;35153;-81
2023/01/30 02:24:46;;;;;;;;;;;;;;;5.58;37.93;99497.78;4475934;31;33767;-82
2023/01/30 02:27:29;;;;;;;;;;;;;;;5.86;37.33;99494.53;4486890;31;34199;-81
2023/01/30 02:29:56;;;;;;;;;;;;;;;5.48;37.93;99490.53;4493225;31;35151;-82
2023/01/30 02:32:35;;;;;;;;;;;;;;;5.18;38.06;99479.94;4482980;31;35051;-82
2023/01/30 02:35:23;;;;;;;;;;;;;;;5.20;38.39;99486.03;4482988;31;33553;-81
2023/01/30 02:37:50;;;;;;;;;;;;;;;5.42;38.09;99479.12;4472820;31;35096;-81
2023/01/30 02:40:18;;;;;;;;;;;;;;;5.56;37.70;99480.53;4484226;31;34412;-80
2023/01/30 02:43:12;;;;;;;;;;;;;;;5.41;38.11;99474.81;4491568;31;33901;-81
2023/01/30 02:46:11;;;;;;;;;;;;;;;5.57;37.88;99469.44;4470163;32;33532;-82
2023/01/30 02:48:59;;;;;;;;;;;;;;;5.45;37.86;99458.66;4472601;31;33885;-82
2023/01/30 02:51:29;;;;;;;;;;;;;;;5.58;37.58;99453.19;4488579;31;34523;-81
2023/01/30 02:53:56;;;;;;;;;;;;;;;5.34;37.90;99448.88;4476551;32;34816;-82
2023/01/30 02:56:24;;;;;;;;;;;;;;;5.52;37.50;99448.66;4468961;32;33529;-81
2023/01/30 02:58:56;;;;;;;;;;;;;;;5.48;37.61;99438.22;4483649;31;33843;-81
2023/01/30 03:01:26;;;;;;;;;;;;;;;5.45;37.69;99438.09;4474991;31;33904;-82
2023/01/30 03:04:04;;;;;;;;;;;;;;;5.79;37.08;99430.78;4488892;31;33937;-81
2023/01/30 03:07:01;;;;;;;;;;;;;;;5.31;37.77;99435.91;4484016;31;33557;-81
2023/01/30 03:09:50;;;;;;;;;;;;;;;5.29;37.81;99434.09;4478653;31;34767;-81
2023/01/30 03:12:39;;;;;;;;;;;;;;;5.57;37.48;99423.16;4472565;32;34099;-81
2023/01/30 03:15:07;;;;;;;;;;;;;;;5.65;37.38;99431.13;4469146;31;33978;-80
2023/01/30 03:17:34;;;;;;;;;;;;;;;5.54;37.40;99430.75;4484186;31;32733;-81
2023/01/30 03:20:02;;;;;;;;;;;;;;;5.50;37.24;99427.19;4474634;32;33976;-82
2023/01/30 03:22:29;;;;;;;;;;;;;;;5.34;37.71;99425.75;4483004;31;35103;-82
2023/01/30 03:24:56;;;;;;;;;;;;;;;5.29;37.46;99419.53;4488188;31;34208;-81
2023/01/30 03:27:23;;;;;;;;;;;;;;;5.61;37.14;99427.59;4495128;31;33102;-82
2023/01/30 03:29:51;;;;;;;;;;;;;;;5.41;37.42;99421.69;4487256;31;34534;-81
2023/01/30 03:32:19;;;;;;;;;;;;;;;5.34;37.53;99423.16;4482745;32;33988;-82
2023/01/30 03:34:46;;;;;;;;;;;;;;;5.39;37.50;99422.47;4482823;31;34790;-81
2023/01/30 03:37:14;;;;;;;;;;;;;;;5.15;37.75;99422.37;4485164;31;32762;-82
2023/01/30 03:39:41;;;;;;;;;;;;;;;5.15;37.79;99423.25;4475789;31;34131;-82
2023/01/30 03:42:09;;;;;;;;;;;;;;;5.17;37.66;99421.63;4493571;31;35250;-82
2023/01/30 03:44:37;;;;;;;;;;;;;;;5.21;37.72;99417.50;4483731;31;32910;-82
2023/01/30 03:47:04;;;;;;;;;;;;;;;5.42;37.39;99404.56;4497136;31;34033;-81
2023/01/30 03:49:32;;;;;;;;;;;;;;;5.19;37.62;99404.59;4493215;31;33795;-81
2023/01/30 03:52:00;;;;;;;;;;;;;;;5.25;37.76;99397.09;4495595;31;34399;-82
2023/01/30 03:54:28;;;;;;;;;;;;;;;5.23;37.54;99401.31;4493185;31;34881;-82
2023/01/30 03:56:55;;;;;;;;;;;;;;;5.01;37.73;99404.75;4497782;31;33280;-81
2023/01/30 03:59:23;;;;;;;;;;;;;;;5.05;37.77;99403.19;4488097;31;34943;-82
2023/01/30 04:01:50;;;;;;;;;;;;;;;4.91;38.10;99401.78;4497969;31;34094;-83
2023/01/30 04:04:18;;;;;;;;;;;;;;;5.26;37.53;99395.41;4491451;31;34560;-81
2023/01/30 04:06:45;;;;;;;;;;;;;;;5.26;37.51;99388.56;4489975;31;32892;-83
2023/01/30 04:09:12;;;;;;;;;;;;;;;5.26;37.34;99379.97;4497977;31;33710;-82
2023/01/30 04:11:58;;;;;;;;;;;;;;;5.40;37.18;99383.06;4493662;31;35244;-83
2023/01/30 04:14:26;;;;;;;;;;;;;;;5.30;37.36;99386.97;4487442;31;34249;-81
2023/01/30 04:17:02;;;;;;;;;;;;;;;5.22;37.46;99378.97;4489444;31;33215;-82
2023/01/30 04:19:30;;;;;;;;;;;;;;;5.03;37.77;99384.25;4484786;31;32633;-82
2023/01/30 04:21:57;;;;;;;;;;;;;;;5.20;37.62;99375.50;4496424;31;34152;-82
2023/01/30 04:24:25;;;;;;;;;;;;;;;5.22;37.43;99378.13;4498801;31;34324;-83
2023/01/30 04:26:52;;;;;;;;;;;;;;;4.93;37.94;99380.47;4491459;31;35523;-82
2023/01/30 04:29:20;;;;;;;;;;;;;;;5.06;38.01;99386.94;4490311;31;34242;-82
2023/01/30 04:31:48;;;;;;;;;;;;;;;5.04;37.71;99376.63;4497790;31;34431;-82
2023/01/30 04:34:15;;;;;;;;;;;;;;;5.12;37.74;99371.78;4484186;31;33466;-81
2023/01/30 04:36:43;;;;;;;;;;;;;;;4.64;38.85;99374.19;4484381;31;33021;-81
2023/01/30 04:39:10;;;;;;;;;;;;;;;4.59;38.85;99368.00;4497819;31;34201;-82
2023/01/30 04:41:39;;;;;;;;;;;;;;;4.83;38.71;99370.66;4496510;31;34965;-81
2023/01/30 04:44:06;;;;;;;;;;;;;;;4.70;38.67;99360.69;4483865;31;35000;-81
2023/01/30 04:46:34;;;;;;;;;;;;;;;4.91;38.49;99352.97;4491431;31;32504;-81
2023/01/30 04:49:02;;;;;;;;;;;;;;;5.06;38.19;99340.69;4495620;31;31386;-81
2023/01/30 04:51:29;;;;;;;;;;;;;;;4.81;38.25;99336.31;4478802;31;34064;-80
2023/01/30 04:53:56;;;;;;;;;;;;;;;4.96;38.16;99336.88;4495617;31;34274;-81
2023/01/30 04:56:24;;;;;;;;;;;;;;;5.33;37.70;99333.97;4497424;31;33445;-82
2023/01/30 04:58:51;;;;;;;;;;;;;;;5.22;37.63;99331.84;4496455;31;33945;-81
2023/01/30 05:01:22;;;;;;;;;;;;;;;5.21;37.63;99336.13;4490977;31;34476;-82
2023/01/30 05:03:50;;;;;;;;;;;;;;;5.00;37.82;99346.50;4493625;31;33695;-82
2023/01/30 05:06:17;;;;;;;;;;;;;;;4.88;38.02;99336.59;4484602;31;32939;-81
2023/01/30 05:08:49;;;;;;;;;;;;;;;4.80;38.14;99330.31;4486611;31;34341;-82
2023/01/30 05:11:17;;;;;;;;;;;;;;;4.83;38.32;99321.84;4490725;31;34138;-82
2023/01/30 05:13:44;;;;;;;;;;;;;;;4.83;38.17;99327.84;4475441;32;34135;-81
2023/01/30 05:16:12;;;;;;;;;;;;;;;4.96;38.07;99334.31;4457270;31;33474;-81
2023/01/30 05:18:40;;;;;;;;;;;;;;;4.95;38.06;99326.56;4482937;31;34934;-82
2023/01/30 05:21:08;;;;;;;;;;;;;;;5.15;37.53;99333.31;4493763;31;35419;-81
2023/01/30 05:23:35;;;;;;;;;;;;;;;4.86;37.91;99329.69;4492557;31;34121;-82
2023/01/30 05:26:03;;;;;;;;;;;;;;;4.78;38.25;99329.38;4485086;31;33204;-80
2023/01/30 05:28:30;;;;;;;;;;;;;;;4.67;38.52;99329.78;4473623;31;34071;-80
2023/01/30 05:31:04;;;;;;;;;;;;;;;4.85;38.29;99325.38;4489294;31;33828;-82
2023/01/30 05:33:32;;;;;;;;;;;;;;;5.13;37.87;99327.25;4493415;31;34062;-81
2023/01/30 05:35:59;;;;;;;;;;;;;;;5.18;37.43;99327.41;4483654;31;32918;-81
2023/01/30 05:38:26;;;;;;;;;;;;;;;5.05;37.50;99318.41;4471062;31;33818;-82
2023/01/30 05:41:01;;;;;;;;;;;;;;;4.90;37.50;99318.69;4478686;31;34342;-81
2023/01/30 05:43:28;;;;;;;;;;;;;;;4.75;37.95;99319.00;4483315;31;35144;-82
2023/01/30 05:45:56;;;;;;;;;;;;;;;4.91;37.58;99317.88;4471923;31;33297;-83
2023/01/30 05:48:24;;;;;;;;;;;;;;;4.83;37.90;99319.28;4489191;31;34045;-83
2023/01/30 05:50:51;;;;;;;;;;;;;;;4.88;37.74;99312.59;4478173;31;34438;-81
2023/01/30 05:53:19;;;;;;;;;;;;;;;5.08;37.52;99321.94;4485208;31;33976;-82
2023/01/30 05:55:53;;;;;;;;;;;;;;;4.86;37.56;99316.84;4474456;31;33416;-81
2023/01/30 05:58:20;;;;;;;;;;;;;;;4.83;37.63;99321.84;4482742;31;33819;-83
2023/01/30 06:00:48;;;;;;;;;;;;;;;4.87;37.59;99327.16;4488844;31;34460;-82
2023/01/30 06:03:15;;;;;;;;;;;;;;;4.74;37.89;99337.78;4490666;31;35163;-81
2023/01/30 06:05:42;;;;;;;;;;;;;;;4.73;38.01;99324.88;4478922;31;33155;-82
2023/01/30 06:08:09;;;;;;;;;;;;;;;4.94;37.54;99325.69;4476140;31;34129;-81
2023/01/30 06:10:37;;;;;;;;;;;;;;;4.81;37.98;99332.06;4487836;31;33708;-82
2023/01/30 06:13:04;;;;;;;;;;;;;;;4.79;37.64;99314.84;4480284;31;34004;-82
2023/01/30 06:15:31;;;;;;;;;;;;;;;4.82;37.42;99322.66;4493121;31;31655;-82
2023/01/30 06:17:59;;;;;;;;;;;;;;;5.01;37.18;99319.09;4484269;31;34107;-81
2023/01/30 06:20:26;;;;;;;;;;;;;;;4.66;38.06;99326.34;4487582;31;34506;-83
2023/01/30 06:22:53;;;;;;;;;;;;;;;4.86;37.93;99325.41;4493929;31;34030;-82
2023/01/30 06:25:21;;;;;;;;;;;;;;;4.76;38.01;99325.88;4485413;31;32990;-82
2023/01/30 06:27:48;;;;;;;;;;;;;;;4.86;38.11;99321.97;4498950;31;34286;-83
2023/01/30 06:30:15;;;;;;;;;;;;;;;4.82;38.22;99320.09;4485012;31;33800;-82
2023/01/30 06:32:43;;;;;;;;;;;;;;;4.51;38.85;99324.06;4462180;32;33351;-83
2023/01/30 06:35:10;;;;;;;;;;;;;;;4.78;38.62;99324.25;4483475;31;34684;-81
2023/01/30 06:37:37;;;;;;;;;;;;;;;4.61;39.12;99323.59;4483889;31;34458;-82
2023/01/30 06:40:08;;;;;;;;;;;;;;;4.97;38.83;99319.81;4483475;32;34211;-83
2023/01/30 06:42:35;;;;;;;;;;;;;;;5.15;38.72;99306.75;4485039;31;34223;-82
2023/01/30 06:45:02;;;;;;;;;;;;;;;4.96;38.58;99313.75;4492987;31;33463;-82
2023/01/30 06:47:30;;;;;;;;;;;;;;;5.03;38.83;99304.59;4489278;31;34289;-82
2023/01/30 06:49:57;;;;;;;;;;;;;;;5.11;38.80;99298.94;4497693;31;34488;-81
2023/01/30 06:52:24;;;;;;;;;;;;;;;5.29;38.82;99291.00;4486794;31;34771;-81
2023/01/30 06:54:52;;;;;;;;;;;;;;;5.16;39.25;99291.41;4490593;31;34083;-81
2023/01/30 06:57:19;;;;;;;;;;;;;;;5.34;39.13;99297.19;4495317;31;33984;-81
2023/01/30 06:59:46;;;;;;;;;;;;;;;5.52;39.01;99301.22;4486456;31;34663;-81
2023/01/30 07:02:13;;;;;;;;;;;;;;;5.20;40.28;99300.97;4483508;31;34086;-81
2023/01/30 07:04:41;;;;;;;;;;;;;;;5.44;40.53;99308.66;4485942;31;33380;-80
2023/01/30 07:07:08;;;;;;;;;;;;;;;5.02;41.95;99301.16;4484802;31;34203;-81
2023/01/30 07:09:36;;;;;;;;;;;;;;;5.29;42.03;99293.56;4487841;31;33254;-82
2023/01/30 07:12:03;;;;;;;;;;;;;;;5.28;42.92;99291.81;4499140;31;33701;-82
2023/01/30 07:14:30;;;;;;;;;;;;;;;5.37;43.59;99292.13;4498785;31;34245;-82
2023/01/30 07:16:57;;;;;;;;;;;;;;;5.56;43.77;99297.94;4498819;31;33618;-82
2023/01/30 07:19:25;;;;;;;;;;;;;;;5.73;43.37;99296.81;4497873;31;34232;-82
2023/01/30 07:21:52;;;;;;;;;;;;;;;5.78;43.44;99299.53;4498662;31;34415;-81
2023/01/30 07:24:19;;;;;;;;;;;;;;;4.92;45.75;99300.75;4498903;31;33309;-83
2023/01/30 07:26:47;;;;;;;;;;;;;;;5.80;43.84;99309.06;4498664;31;33511;-81
2023/01/30 07:29:14;;;;;;;;;;;;;;;5.70;44.11;99301.84;4498488;31;34152;-80
2023/01/30 07:31:42;;;;;;;;;;;;;;;5.80;44.18;99295.34;4490439;31;33645;-81
2023/01/30 07:34:10;;;;;;;;;;;;;;;6.16;43.65;99295.69;4443154;32;33040;-83
2023/01/30 07:36:37;;;;;;;;;;;;;;;5.78;44.54;99303.00;4455646;32;34512;-82
2023/01/30 07:39:45;;;;;;;;;;;;;;;4.59;47.67;99306.38;4463677;31;33556;-82
2023/01/30 07:42:12;;;;;;;;;;;;;;;5.56;45.43;99303.94;4498932;31;33973;-81
2023/01/30 07:44:39;;;;;;;;;;;;;;;5.91;44.69;99303.41;4495283;31;33752;-82
2023/01/30 07:47:07;;;;;;;;;;;;;;;6.03;44.22;99301.28;4482457;32;34022;-83
2023/01/30 07:49:34;;;;;;;;;;;;;;;5.58;45.19;99301.44;4469201;32;34374;-82
2023/01/30 07:52:01;;;;;;;;;;;;;;;6.60;42.98;99291.06;4468764;32;34077;-83
2023/01/30 07:54:29;;;;;;;;;;;;;;;6.88;41.99;99276.44;4468420;32;33409;-83
2023/01/30 07:56:56;;;;;;;;;;;;;;;6.54;42.92;99281.44;4482463;32;34144;-84
2023/01/30 07:59:23;;;;;;;;;;;;;;;6.15;44.22;99286.22;4467802;32;34450;-83
2023/01/30 08:01:51;;;;;;;;;;;;;;;6.66;43.21;99280.94;4468032;32;34171;-83
2023/01/30 08:04:18;;;;;;;;;;;;;;;6.38;43.19;99279.22;4482316;32;33429;-83
2023/01/30 08:06:45;;;;;;;;;;;;;;;5.73;44.31;99276.25;4482083;31;33900;-83
2023/01/30 08:09:13;;;;;;;;;;;;;;;6.32;44.05;99279.03;4482184;32;33310;-83
2023/01/30 08:11:40;;;;;;;;;;;;;;;6.64;43.24;99256.84;4482099;32;35101;-83
2023/01/30 08:14:08;;;;;;;;;;;;;;;6.61;42.84;99256.75;4495162;31;33645;-82
2023/01/30 08:16:35;;;;;;;;;;;;;;;6.92;42.37;99253.37;4497725;31;34335;-82
2023/01/30 08:19:04;;;;;;;;;;;;;;;6.84;42.39;99234.22;4497549;31;34499;-82
2023/01/30 08:21:31;;;;;;;;;;;;;;;7.59;41.19;99219.94;4497387;31;34204;-83
2023/01/30 08:23:58;;;;;;;;;;;;;;;7.54;41.20;99217.25;4483396;31;33997;-81
2023/01/30 08:26:27;;;;;;;;;;;;;;;7.63;40.69;99208.84;4497616;31;34573;-82
2023/01/30 08:28:54;;;;;;;;;;;;;;;7.01;41.95;99211.53;4497284;31;34755;-83
2023/01/30 08:31:22;;;;;;;;;;;;;;;7.05;42.03;99209.06;4499087;31;34377;-82
2023/01/30 08:33:49;;;;;;;;;;;;;;;7.38;41.43;99215.06;4486076;31;32788;-82
2023/01/30 08:36:16;;;;;;;;;;;;;;;7.29;41.44;99218.28;4485449;31;33790;-83
2023/01/30 08:38:46;;;;;;;;;;;;;;;7.93;40.07;99208.72;4499842;31;33989;-83
2023/01/30 08:41:14;;;;;;;;;;;;;;;6.91;41.98;99209.53;4499493;31;35020;-81
2023/01/30 08:43:41;;;;;;;;;;;;;;;6.89;42.57;99206.00;4499564;31;32924;-82
2023/01/30 08:46:08;;;;;;;;;;;;;;;6.22;43.92;99203.22;4499662;31;34232;-82
2023/01/30 08:48:39;;;;;;;;;;;;;;;6.36;43.73;99202.75;4499605;31;34297;-81
2023/01/30 08:51:16;;;;;;;;;;;;;;;6.51;43.51;99191.19;4499816;31;34807;-82
2023/01/30 08:53:43;;;;;;;;;;;;;;;6.59;43.51;99199.16;4485497;31;33455;-82
2023/01/30 08:56:12;;;;;;;;;;;;;;;6.62;43.52;99196.66;4499497;31;33904;-82
2023/01/30 08:58:39;;;;;;;;;;;;;;;6.29;44.58;99196.56;4499527;31;35455;-81
2023/01/30 09:01:07;;;;;;;;;;;;;;;6.55;44.00;99210.19;4499525;31;34604;-81
2023/01/30 09:03:34;;;;;;;;;;;;;;;6.21;44.56;99209.22;4499561;31;33190;-82
2023/01/30 09:06:04;;;;;;;;;;;;;;;6.16;44.99;99208.19;4499610;31;34883;-82
2023/01/30 09:08:31;;;;;;;;;;;;;;;6.12;44.99;99203.75;4499538;31;34452;-81
2023/01/30 09:11:03;;;;;;;;;;;;;;;6.67;44.06;99195.13;4499474;31;34147;-82
2023/01/30 09:13:30;;;;;;;;;;;;;;;6.83;43.44;99199.88;4472217;31;33180;-82
2023/01/30 09:15:58;;;;;;;;;;;;;;;6.02;45.41;99192.31;4499810;31;34062;-81
2023/01/30 09:18:25;;;;;;;;;;;;;;;6.77;43.63;99189.38;4485201;31;34614;-82
2023/01/30 09:20:52;;;;;;;;;;;;;;;6.77;43.83;99196.22;4499328;31;34324;-83
2023/01/30 09:23:20;;;;;;;;;;;;;;;6.39;44.80;99198.56;4485163;31;33348;-82
2023/01/30 09:25:47;;;;;;;;;;;;;;;6.86;43.96;99191.34;4499074;31;33610;-82
2023/01/30 09:28:14;;;;;;;;;;;;;;;7.24;43.42;99183.78;4499121;31;34102;-81
2023/01/30 09:30:42;;;;;;;;;;;;;;;6.00;45.68;99170.81;4499370;31;33780;-80
2023/01/30 09:33:09;;;;;;;;;;;;;;;6.79;44.15;99176.56;4499417;31;34086;-80
2023/01/30 09:35:36;;;;;;;;;;;;;;;7.04;43.47;99168.63;4499441;31;34086;-80
2023/01/30 09:38:04;;;;;;;;;;;;;;;7.37;43.25;99172.94;4499143;31;34415;-80
2023/01/30 09:40:31;;;;;;;;;;;;;;;6.65;44.53;99170.13;4499037;31;33827;-81
2023/01/30 09:43:02;;;;;;;;;;;;;;;6.02;46.18;99166.59;4499102;31;33276;-80
2023/01/30 09:45:29;;;;;;;;;;;;;;;5.97;46.55;99170.69;4482792;31;34439;-82
2023/01/30 09:48:10;;;;;;;;;;;;;;;6.16;46.30;99163.53;4483662;32;35044;-83
2023/01/30 09:50:44;;;;;;;;;;;;;;;6.24;45.85;99152.63;4482460;32;34555;-83
2023/01/30 09:53:19;;;;;;;;;;;;;;;5.84;47.26;99141.13;4482528;32;33384;-82
2023/01/30 09:55:47;;;;;;;;;;;;;;;6.46;45.98;99138.69;4469085;32;34034;-82
2023/01/30 09:58:21;;;;;;;;;;;;;;;6.85;44.95;99140.63;4483505;32;33992;-82
2023/01/30 10:00:50;;;;;;;;;;;;;;;7.17;44.53;99136.34;4482296;32;34260;-82
2023/01/30 10:03:19;;;;;;;;;;;;;;;7.04;44.65;99127.38;4482337;32;34372;-82
2023/01/30 10:05:52;;;;;;;;;;;;;;;7.40;43.51;99115.41;4482257;32;34125;-83
2023/01/30 10:08:25;;;;;;;;;;;;;;;7.32;44.02;99118.66;4483675;32;34068;-83
2023/01/30 10:11:01;;;;;;;;;;;;;;;7.17;43.95;99115.72;4483554;32;34076;-82
2023/01/30 10:13:41;;;;;;;;;;;;;;;6.03;46.36;99113.41;4482448;32;32928;-82
2023/01/30 10:16:08;;;;;;;;;;;;;;;6.82;45.17;99099.34;4483466;32;34274;-82
2023/01/30 10:18:45;;;;;;;;;;;;;;;6.90;44.79;99103.00;4483869;32;34422;-82
2023/01/30 10:21:21;;;;;;;;;;;;;;;7.17;44.48;99110.56;4483000;32;34386;-82
2023/01/30 10:23:48;;;;;;;;;;;;;;;6.86;44.98;99098.59;4483638;32;33854;-82
2023/01/30 10:26:18;;;;;;;;;;;;;;;7.41;43.95;99088.78;4483317;32;34810;-82
2023/01/30 10:28:56;;;;;;;;;;;;;;;7.46;43.82;99082.00;4469382;32;34760;-83
2023/01/30 10:31:47;;;;;;;;;;;;;;;6.85;45.12;99086.50;4482320;32;33888;-82
2023/01/30 10:34:20;;;;;;;;;;;;;;;6.60;45.65;99079.84;4482424;32;34209;-82
2023/01/30 10:36:57;;;;;;;;;;;;;;;6.75;44.83;99066.50;4483470;32;34358;-82
2023/01/30 10:39:28;;;;;;;;;;;;;;;6.41;45.89;99057.00;4483186;32;34483;-82
2023/01/30 10:42:05;;;;;;;;;;;;;;;6.20;46.38;99058.13;4482390;32;34273;-83
2023/01/30 10:44:33;;;;;;;;;;;;;;;6.49;46.38;99050.34;4481902;32;33659;-82
2023/01/30 10:47:19;;;;;;;;;;;;;;;6.42;46.56;99040.72;4481893;32;33512;-82
2023/01/30 10:49:50;;;;;;;;;;;;;;;6.31;47.14;99041.28;4483245;32;34264;-82
2023/01/30 10:52:36;;;;;;;;;;;;;;;6.76;46.13;99033.03;4483193;32;34340;-82
2023/01/30 10:55:12;;;;;;;;;;;;;;;6.54;46.18;99028.16;4482749;32;33714;-82
2023/01/30 10:57:52;;;;;;;;;;;;;;;7.33;45.44;99013.81;4483046;32;34020;-82
2023/01/30 11:00:48;;;;;;;;;;;;;;;7.34;45.41;99005.22;4481838;32;34712;-83
2023/01/30 11:03:16;;;;;;;;;;;;;;;7.09;46.09;98993.50;4469845;31;34989;-82
2023/01/30 11:05:52;;;;;;;;;;;;;;;7.55;44.91;98991.94;4483342;32;33134;-82
2023/01/30 11:08:22;;;;;;;;;;;;;;;7.32;44.98;98986.28;4482849;32;33870;-82
2023/01/30 11:10:50;;;;;;;;;;;;;;;6.53;46.30;98988.66;4482852;32;35185;-82
2023/01/30 11:13:18;;;;;;;;;;;;;;;6.14;47.52;98978.19;4483044;32;34015;-83
2023/01/30 11:15:47;;;;;;;;;;;;;;;5.73;48.74;98977.00;4485650;31;34311;-82
2023/01/30 11:18:14;;;;;;;;;;;;;;;6.51;47.01;98956.84;4486244;31;34752;-82
2023/01/30 11:21:06;;;;;;;;;;;;;;;6.60;46.15;98952.78;4471087;32;35203;-82
2023/01/30 11:23:35;;;;;;;;;;;;;;;6.77;46.28;98947.19;4468738;32;33731;-82
2023/01/30 11:26:04;;;;;;;;;;;;;;;7.23;45.80;98939.66;4483119;32;33184;-82
2023/01/30 11:28:40;;;;;;;;;;;;;;;6.85;46.74;98925.87;4498041;31;34747;-82
2023/01/30 11:31:18;;;;;;;;;;;;;;;7.23;45.86;98921.59;4484321;31;35371;-82
2023/01/30 11:34:05;;;;;;;;;;;;;;;6.76;46.36;98929.13;4498380;31;34429;-81
2023/01/30 11:36:33;;;;;;;;;;;;;;;7.09;45.78;98926.47;4496930;31;33501;-82
2023/01/30 11:39:02;;;;;;;;;;;;;;;7.24;45.80;98921.66;4481334;32;34545;-82
2023/01/30 11:41:30;;;;;;;;;;;;;;;7.66;44.58;98910.50;4479632;31;34367;-80
2023/01/30 11:44:01;;;;;;;;;;;;;;;7.63;45.34;98920.75;4481263;32;34574;-81
2023/01/30 11:46:29;;;;;;;;;;;;;;;7.68;45.20;98919.13;4476457;32;33470;-80
2023/01/30 11:48:58;;;;;;;;;;;;;;;7.66;45.26;98900.19;4468271;32;34996;-80
2023/01/30 11:51:45;;;;;;;;;;;;;;;7.29;45.90;98886.50;4470464;32;34279;-82
2023/01/30 11:54:20;;;;;;;;;;;;;;;7.36;45.92;98876.34;4482311;31;33959;-82
2023/01/30 11:56:48;;;;;;;;;;;;;;;6.22;48.67;98878.88;4482383;31;33381;-81
2023/01/30 11:59:18;;;;;;;;;;;;;;;7.16;46.38;98888.78;4480986;32;33284;-81
2023/01/30 12:01:45;;;;;;;;;;;;;;;7.47;45.76;98873.13;4484801;31;35356;-81
2023/01/30 12:04:13;;;;;;;;;;;;;;;7.29;46.10;98872.75;4492443;31;35023;-80
2023/01/30 12:06:41;;;;;;;;;;;;;;;7.55;45.42;98876.72;4468704;32;32675;-80
2023/01/30 12:09:27;;;;;;;;;;;;;;;8.15;43.91;98874.44;4469750;32;34152;-81
2023/01/30 12:11:54;;;;;;;;;;;;;;;7.78;44.88;98895.25;4478727;32;34116;-81
2023/01/30 12:14:34;;;;;;;;;;;;;;;7.70;45.11;98881.34;4471736;32;33590;-80
2023/01/30 12:17:11;;;;;;;;;;;;;;;8.10;43.62;98869.16;4484156;31;34155;-80
2023/01/30 12:19:52;;;;;;;;;;;;;;;7.64;44.83;98868.31;4486304;31;34014;-80
2023/01/30 12:22:38;;;;;;;;;;;;;;;7.74;44.54;98835.81;4494925;31;34035;-79
2023/01/30 12:25:19;;;;;;;;;;;;;;;7.82;44.54;98838.53;4487208;31;35051;-81
2023/01/30 12:28:02;;;;;;;;;;;;;;;7.32;45.51;98847.91;4469765;32;33437;-80
2023/01/30 12:30:50;;;;;;;;;;;;;;;8.04;43.94;98840.66;4472088;31;34306;-80
2023/01/30 12:33:18;;;;;;;;;;;;;;;7.05;45.96;98837.03;4477946;31;35129;-81
2023/01/30 12:35:45;;;;;;;;;;;;;;;7.63;44.45;98821.84;4472680;31;35177;-81
2023/01/30 12:38:36;;;;;;;;;;;;;;;7.15;45.67;98820.88;4490599;31;33550;-81
2023/01/30 12:41:06;;;;;;;;;;;;;;;8.31;43.46;98798.06;4479711;31;33951;-80
2023/01/30 12:43:34;;;;;;;;;;;;;;;7.99;44.24;98799.28;4483540;31;35154;-81
2023/01/30 12:46:01;;;;;;;;;;;;;;;8.37;43.09;98809.41;4485170;31;34023;-81
2023/01/30 12:48:37;;;;;;;;;;;;;;;8.12;43.68;98810.69;4491703;31;33312;-82
2023/01/30 12:51:33;;;;;;;;;;;;;;;7.79;44.42;98805.78;4489784;31;33725;-80
2023/01/30 12:54:20;;;;;;;;;;;;;;;8.23;43.10;98810.88;4483490;32;35291;-80
2023/01/30 12:56:55;;;;;;;;;;;;;;;8.12;43.46;98810.69;4485814;31;35001;-81
2023/01/30 12:59:38;;;;;;;;;;;;;;;8.26;43.05;98806.63;4469195;31;32858;-81
2023/01/30 13:02:20;;;;;;;;;;;;;;;7.89;43.94;98805.13;4474670;31;34920;-80
2023/01/30 13:04:55;;;;;;;;;;;;;;;8.16;43.11;98773.72;4495273;31;35134;-80
2023/01/30 13:07:39;;;;;;;;;;;;;;;8.25;42.91;98773.87;4472845;31;34916;-80
2023/01/30 13:10:09;;;;;;;;;;;;;;;8.44;43.05;98774.19;4493339;31;34142;-80
2023/01/30 13:12:40;;;;;;;;;;;;;;;7.51;44.83;98766.59;4478526;31;34221;-79
2023/01/30 13:15:26;;;;;;;;;;;;;;;8.10;43.27;98755.56;4472202;32;34918;-80
2023/01/30 13:18:14;;;;;;;;;;;;;;;7.42;44.91;98760.38;4483223;31;34553;-80
2023/01/30 13:20:41;;;;;;;;;;;;;;;7.41;44.45;98750.91;4480003;31;33777;-80